createdAt,value
2023-05-13T00:01:19.230Z,4.30
2023-05-13T00:03:45.715Z,4.80
2023-05-13T00:06:12.954Z,4.90
2023-05-13T00:08:40.615Z,4.50
2023-05-13T00:11:08.610Z,4.03
2023-05-13T00:13:35.049Z,4.77
2023-05-13T00:16:02.698Z,4.93
2023-05-13T00:18:29.152Z,4.83
2023-05-13T00:20:56.400Z,4.70
2023-05-13T00:23:22.882Z,4.40
2023-05-13T00:25:49.388Z,4.37
2023-05-13T00:28:17.121Z,4.10
2023-05-13T00:30:45.889Z,4.20
2023-05-13T00:33:12.783Z,4.20
2023-05-13T00:35:39.275Z,4.10
2023-05-13T00:38:06.844Z,4.40
2023-05-13T00:40:38.513Z,4.73
2023-05-13T00:43:06.792Z,4.90
2023-05-13T00:45:34.046Z,4.93
2023-05-13T00:48:03.092Z,4.73
2023-05-13T00:50:29.889Z,5.33
2023-05-13T00:52:59.719Z,4.50
2023-05-13T00:55:26.728Z,5.40
2023-05-13T00:57:53.173Z,5.20
2023-05-13T01:00:20.413Z,5.23
2023-05-13T01:03:06.075Z,4.80
2023-05-13T01:05:44.108Z,5.20
2023-05-13T01:08:40.081Z,5.30
2023-05-13T01:11:15.940Z,5.53
2023-05-13T01:13:45.108Z,5.13
2023-05-13T01:16:32.911Z,5.50
2023-05-13T01:19:05.777Z,5.73
2023-05-13T01:21:36.241Z,4.80
2023-05-13T01:24:02.707Z,5.10
2023-05-13T01:26:29.495Z,6.03
2023-05-13T01:28:56.323Z,6.07
2023-05-13T01:31:23.935Z,5.63
2023-05-13T01:33:51.788Z,5.60
2023-05-13T01:36:18.337Z,4.87
2023-05-13T01:38:45.552Z,5.43
2023-05-13T01:41:12.021Z,5.13
2023-05-13T01:43:38.420Z,5.73
2023-05-13T01:46:12.483Z,5.00
2023-05-13T01:48:39.045Z,5.30
2023-05-13T01:51:08.944Z,5.97
2023-05-13T01:53:35.618Z,5.13
2023-05-13T01:56:02.045Z,5.10
2023-05-13T01:58:28.899Z,5.30
2023-05-13T02:00:55.324Z,5.30
2023-05-13T02:03:21.820Z,5.30
2023-05-13T02:05:49.031Z,5.97
2023-05-13T02:08:16.490Z,5.83
2023-05-13T02:10:43.053Z,5.80
2023-05-13T02:13:09.992Z,5.10
2023-05-13T02:15:36.815Z,5.47
2023-05-13T02:18:04.359Z,5.60
2023-05-13T02:20:31.024Z,5.90
2023-05-13T02:22:57.443Z,5.70
2023-05-13T02:25:23.993Z,5.77
2023-05-13T02:27:51.143Z,5.97
2023-05-13T02:30:17.796Z,6.50
2023-05-13T02:32:44.625Z,6.20
2023-05-13T02:35:11.011Z,6.20
2023-05-13T02:37:37.452Z,6.27
2023-05-13T02:40:04.385Z,5.57
2023-05-13T02:42:33.224Z,6.50
2023-05-13T02:45:00.005Z,5.93
2023-05-13T02:47:26.510Z,6.63
2023-05-13T02:49:54.215Z,6.23
2023-05-13T02:52:20.972Z,6.20
2023-05-13T02:54:47.427Z,6.30
2023-05-13T02:57:13.885Z,5.97
2023-05-13T02:59:40.440Z,6.00
2023-05-13T03:02:09.173Z,5.77
2023-05-13T03:04:36.226Z,6.70
2023-05-13T03:07:02.692Z,5.67
2023-05-13T03:09:31.539Z,5.90
2023-05-13T03:11:58.743Z,5.90
2023-05-13T03:14:25.180Z,6.37
2023-05-13T03:16:51.739Z,5.50
2023-05-13T03:19:18.338Z,5.47
2023-05-13T03:21:44.848Z,5.80
2023-05-13T03:24:11.268Z,5.97
2023-05-13T03:26:37.722Z,6.40
2023-05-13T03:29:04.433Z,5.57
2023-05-13T03:31:30.920Z,5.43
2023-05-13T03:33:57.430Z,5.40
2023-05-13T03:36:24.088Z,5.00
2023-05-13T03:38:52.327Z,5.00
2023-05-13T03:41:18.816Z,5.33
2023-05-13T03:43:46.259Z,4.90
2023-05-13T03:46:14.979Z,5.20
2023-05-13T03:48:41.487Z,5.43
2023-05-13T03:51:07.848Z,4.97
2023-05-13T03:53:34.510Z,5.00
2023-05-13T03:56:01.168Z,5.20
2023-05-13T03:58:27.601Z,5.13
2023-05-13T04:00:54.059Z,5.00
2023-05-13T04:03:21.593Z,5.30
2023-05-13T04:05:49.476Z,5.13
2023-05-13T04:08:15.983Z,4.97
2023-05-13T04:10:42.901Z,5.50
2023-05-13T04:13:09.269Z,4.80
2023-05-13T04:15:35.804Z,5.10
2023-05-13T04:18:02.529Z,5.50
2023-05-13T04:20:29.501Z,5.37
2023-05-13T04:22:56.435Z,5.73
2023-05-13T04:25:22.925Z,5.97
2023-05-13T04:27:49.388Z,5.20
2023-05-13T04:30:16.106Z,5.30
2023-05-13T04:32:42.542Z,4.90
2023-05-13T04:35:09.134Z,6.17
2023-05-13T04:37:35.543Z,5.73
2023-05-13T04:40:04.149Z,5.60
2023-05-13T04:42:30.634Z,5.60
2023-05-13T04:44:57.481Z,5.60
2023-05-13T04:47:23.945Z,5.80
2023-05-13T04:49:50.373Z,5.57
2023-05-13T04:52:17.216Z,5.77
2023-05-13T04:54:43.811Z,5.83
2023-05-13T04:57:10.600Z,5.60
2023-05-13T04:59:37.093Z,6.47
2023-05-13T05:02:06.339Z,6.97
2023-05-13T05:04:33.216Z,5.87
2023-05-13T05:07:02.340Z,5.80
2023-05-13T05:09:30.037Z,5.87
2023-05-13T05:11:56.444Z,6.13
2023-05-13T05:14:23.265Z,6.60
2023-05-13T05:16:49.704Z,6.33
2023-05-13T05:19:17.659Z,5.40
2023-05-13T05:21:46.183Z,6.57
2023-05-13T05:24:12.697Z,5.70
2023-05-13T05:26:40.128Z,5.80
2023-05-13T05:29:07.887Z,6.00
2023-05-13T05:31:34.702Z,5.73
2023-05-13T05:34:01.747Z,6.27
2023-05-13T05:36:31.539Z,5.77
2023-05-13T05:38:58.083Z,5.50
2023-05-13T05:41:24.813Z,5.60
2023-05-13T05:43:51.299Z,5.50
2023-05-13T05:46:18.576Z,5.63
2023-05-13T05:48:47.559Z,5.97
2023-05-13T05:51:13.963Z,5.93
2023-05-13T05:53:43.421Z,5.90
2023-05-13T05:56:10.002Z,6.17
2023-05-13T05:58:36.464Z,6.40
2023-05-13T06:01:02.920Z,5.60
2023-05-13T06:03:29.849Z,5.90
2023-05-13T06:05:56.564Z,5.93
2023-05-13T06:08:29.814Z,6.23
2023-05-13T06:10:59.530Z,6.30
2023-05-13T06:13:26.207Z,6.20
2023-05-13T06:15:52.716Z,5.83
2023-05-13T06:18:19.233Z,7.33
2023-05-13T06:20:46.060Z,6.60
2023-05-13T06:23:14.332Z,6.20
2023-05-13T06:25:42.458Z,6.10
2023-05-13T06:28:11.390Z,6.20
2023-05-13T06:30:38.979Z,5.90
2023-05-13T06:33:06.028Z,6.53
2023-05-13T06:35:33.308Z,6.20
2023-05-13T06:37:59.777Z,6.37
2023-05-13T06:40:26.213Z,5.23
2023-05-13T06:42:52.620Z,5.30
2023-05-13T06:45:24.197Z,5.40
2023-05-13T06:47:51.621Z,5.10
2023-05-13T06:50:18.409Z,5.53
2023-05-13T06:52:44.975Z,5.40
2023-05-13T06:55:11.553Z,5.40
2023-05-13T06:57:43.321Z,5.60
2023-05-13T07:00:11.846Z,5.00
2023-05-13T07:02:38.282Z,5.17
2023-05-13T07:05:05.346Z,4.70
2023-05-13T07:07:32.181Z,5.23
2023-05-13T07:09:59.450Z,4.63
2023-05-13T07:12:26.125Z,4.63
2023-05-13T07:14:52.613Z,4.80
2023-05-13T07:17:19.186Z,4.70
2023-05-13T07:19:46.025Z,4.37
2023-05-13T07:22:12.939Z,3.80
2023-05-13T07:24:41.860Z,3.93
2023-05-13T07:27:08.298Z,4.57
2023-05-13T07:29:35.065Z,4.40
2023-05-13T07:32:08.089Z,4.30
2023-05-13T07:34:34.848Z,4.00
2023-05-13T07:37:01.277Z,3.93
2023-05-13T07:39:28.921Z,3.80
2023-05-13T07:41:55.583Z,3.63
2023-05-13T07:44:22.074Z,3.37
2023-05-13T07:46:49.283Z,3.60
2023-05-13T07:49:15.821Z,3.50
2023-05-13T07:51:42.580Z,3.20
2023-05-13T07:54:09.298Z,3.23
2023-05-13T07:56:36.203Z,3.23
2023-05-13T07:59:02.894Z,3.10
2023-05-13T08:01:29.881Z,3.00
2023-05-13T08:03:56.641Z,2.90
2023-05-13T08:06:23.393Z,3.40
2023-05-13T08:08:49.791Z,3.13
2023-05-13T08:11:16.191Z,4.00
2023-05-13T08:13:42.650Z,3.13
2023-05-13T08:16:09.197Z,2.30
2023-05-13T08:18:36.006Z,2.33
2023-05-13T08:21:02.782Z,2.90
2023-05-13T08:23:40.954Z,2.40
2023-05-13T08:26:10.613Z,2.43
2023-05-13T08:28:38.654Z,2.50
2023-05-13T08:31:05.332Z,2.30
2023-05-13T08:33:32.439Z,2.43
2023-05-13T08:36:01.658Z,2.23
2023-05-13T08:38:28.443Z,2.40
2023-05-13T08:40:55.288Z,2.30
2023-05-13T08:43:23.980Z,2.10
2023-05-13T08:45:53.686Z,1.97
2023-05-13T08:48:22.966Z,1.87
2023-05-13T08:50:50.394Z,2.10
2023-05-13T08:53:18.722Z,2.00
2023-05-13T08:55:45.544Z,2.07
2023-05-13T08:58:12.609Z,2.00
2023-05-13T09:00:39.280Z,1.90
2023-05-13T09:03:07.309Z,1.90
2023-05-13T09:05:35.670Z,1.93
2023-05-13T09:08:10.933Z,1.73
2023-05-13T09:10:37.803Z,1.90
2023-05-13T09:13:04.852Z,1.70
2023-05-13T09:15:31.800Z,1.70
2023-05-13T09:18:08.152Z,1.93
2023-05-13T09:20:35.239Z,1.70
2023-05-13T09:23:07.861Z,1.63
2023-05-13T09:25:35.438Z,1.87
2023-05-13T09:28:04.888Z,1.90
2023-05-13T09:30:40.633Z,1.90
2023-05-13T09:33:19.697Z,1.90
2023-05-13T09:35:52.952Z,1.50
2023-05-13T09:38:28.854Z,1.50
2023-05-13T09:40:58.528Z,1.60
2023-05-13T09:43:27.291Z,1.57
2023-05-13T09:46:02.496Z,1.50
2023-05-13T09:48:39.267Z,1.40
2023-05-13T09:51:06.439Z,1.70
2023-05-13T09:53:33.201Z,1.40
2023-05-13T09:56:00.692Z,1.70
2023-05-13T09:58:29.182Z,1.50
2023-05-13T10:00:57.305Z,1.90
2023-05-13T10:03:24.499Z,3.03
2023-05-13T10:05:52.888Z,2.10
2023-05-13T10:08:19.655Z,1.87
2023-05-13T10:10:48.154Z,2.10
2023-05-13T10:13:16.825Z,2.30
2023-05-13T10:15:53.396Z,2.27
2023-05-13T10:18:21.409Z,2.00
2023-05-13T10:20:53.210Z,1.70
2023-05-13T10:23:21.272Z,1.70
2023-05-13T10:25:48.496Z,1.77
2023-05-13T10:28:16.677Z,1.70
2023-05-13T10:30:44.622Z,1.60
2023-05-13T10:33:11.953Z,1.50
2023-05-13T10:35:43.324Z,1.20
2023-05-13T10:38:25.540Z,1.50
2023-05-13T10:41:13.685Z,1.70
2023-05-13T10:43:40.445Z,1.40
2023-05-13T10:46:11.584Z,1.60
2023-05-13T10:48:40.425Z,1.53
2023-05-13T10:51:08.115Z,1.53
2023-05-13T10:53:47.753Z,1.50
2023-05-13T10:56:15.670Z,1.80
2023-05-13T10:58:42.220Z,1.67
2023-05-13T11:03:40.556Z,1.60
2023-05-13T11:06:13.193Z,1.60
2023-05-13T11:08:41.693Z,1.60
2023-05-13T11:11:37.755Z,1.70
2023-05-13T11:14:23.855Z,1.93
2023-05-13T11:16:59.300Z,1.73
2023-05-13T11:19:35.406Z,1.60
2023-05-13T11:22:12.515Z,1.60
2023-05-13T11:24:39.981Z,1.50
2023-05-13T11:27:20.937Z,1.67
2023-05-13T11:29:52.178Z,1.50
2023-05-13T11:32:58.327Z,1.50
2023-05-13T11:35:30.467Z,2.77
2023-05-13T11:38:02.212Z,2.40
2023-05-13T11:40:34.104Z,2.20
2023-05-13T11:43:01.393Z,1.87
2023-05-13T11:45:30.520Z,2.00
2023-05-13T11:47:57.616Z,1.60
2023-05-13T11:50:30.494Z,1.90
2023-05-13T11:52:59.278Z,1.67
2023-05-13T11:55:29.871Z,1.37
2023-05-13T11:57:58.712Z,1.40
2023-05-13T12:00:32.064Z,1.43
2023-05-13T12:02:59.625Z,1.50
2023-05-13T12:05:26.661Z,1.40
2023-05-13T12:07:58.102Z,1.67
2023-05-13T12:10:26.593Z,1.60
2023-05-13T12:12:53.373Z,1.60
2023-05-13T12:15:22.443Z,1.53
2023-05-13T12:17:49.943Z,1.90
2023-05-13T12:20:17.849Z,1.80
2023-05-13T12:22:44.252Z,1.40
2023-05-13T12:25:41.851Z,1.40
2023-05-13T12:28:16.761Z,1.30
2023-05-13T12:30:50.564Z,1.60
2023-05-13T12:33:18.981Z,2.00
2023-05-13T12:35:48.361Z,2.10
2023-05-13T12:38:20.733Z,2.20
2023-05-13T12:40:48.522Z,1.60
2023-05-13T12:43:17.132Z,1.70
2023-05-13T12:45:45.667Z,1.87
2023-05-13T12:48:13.636Z,2.10
2023-05-13T12:50:40.193Z,1.80
2023-05-13T12:53:06.998Z,1.53
2023-05-13T12:55:33.608Z,1.37
2023-05-13T12:58:03.386Z,1.30
2023-05-13T13:00:31.195Z,1.60
2023-05-13T13:02:58.189Z,1.30
2023-05-13T13:05:25.905Z,1.83
2023-05-13T13:07:53.533Z,1.20
2023-05-13T13:10:20.076Z,1.33
2023-05-13T13:12:46.752Z,1.20
2023-05-13T13:15:13.604Z,1.17
2023-05-13T13:17:42.074Z,1.40
2023-05-13T13:20:08.874Z,1.40
2023-05-13T13:22:39.096Z,1.20
2023-05-13T13:25:06.911Z,1.30
2023-05-13T13:27:34.700Z,1.20
2023-05-13T13:30:01.278Z,1.43
2023-05-13T13:32:27.930Z,1.40
2023-05-13T13:34:54.872Z,1.20
2023-05-13T13:37:21.364Z,1.10
2023-05-13T13:39:47.822Z,1.10
2023-05-13T13:42:14.580Z,1.00
2023-05-13T13:44:42.682Z,1.00
2023-05-13T13:47:09.548Z,1.17
2023-05-13T13:49:35.988Z,1.10
2023-05-13T13:52:02.869Z,1.00
2023-05-13T13:54:29.332Z,1.00
2023-05-13T13:56:56.613Z,0.90
2023-05-13T13:59:23.197Z,1.10
2023-05-13T14:01:51.340Z,1.20
2023-05-13T14:04:27.419Z,1.10
2023-05-13T14:06:55.835Z,0.90
2023-05-13T14:09:22.552Z,1.23
2023-05-13T14:11:49.048Z,1.10
2023-05-13T14:14:15.498Z,1.20
2023-05-13T14:16:43.056Z,1.80
2023-05-13T14:19:11.657Z,1.40
2023-05-13T14:21:38.087Z,1.40
2023-05-13T14:24:04.715Z,1.57
2023-05-13T14:26:31.780Z,1.40
2023-05-13T14:28:58.186Z,1.33
2023-05-13T14:31:24.976Z,1.30
2023-05-13T14:33:51.717Z,1.50
2023-05-13T14:36:20.777Z,1.50
2023-05-13T14:38:48.008Z,1.50
2023-05-13T14:41:19.978Z,1.63
2023-05-13T14:43:47.943Z,1.67
2023-05-13T14:46:14.711Z,1.90
2023-05-13T14:48:41.324Z,1.87
2023-05-13T14:51:07.879Z,1.90
2023-05-13T14:53:34.602Z,1.90
2023-05-13T14:56:01.040Z,1.95
2023-05-13T14:58:27.543Z,1.93
2023-05-13T15:00:54.309Z,1.90
2023-05-13T15:03:21.061Z,2.20
2023-05-13T15:05:48.363Z,2.10
2023-05-13T15:08:15.187Z,1.90
2023-05-13T15:10:41.859Z,2.20
2023-05-13T15:13:08.388Z,2.20
2023-05-13T15:15:36.608Z,2.22
2023-05-13T15:18:03.171Z,2.25
2023-05-13T15:20:29.850Z,2.40
2023-05-13T15:22:57.771Z,2.45
2023-05-13T15:25:24.496Z,2.33
2023-05-13T15:27:51.695Z,2.30
2023-05-13T15:30:18.143Z,2.10
2023-05-13T15:32:44.626Z,2.40
2023-05-13T15:35:11.215Z,2.40
2023-05-13T15:37:37.740Z,2.47
2023-05-13T15:40:06.011Z,2.50
2023-05-13T15:42:32.916Z,2.83
2023-05-13T15:44:59.337Z,2.90
2023-05-13T15:47:26.085Z,3.10
2023-05-13T15:49:54.199Z,3.20
2023-05-13T15:52:21.726Z,3.03
2023-05-13T15:54:48.169Z,3.50
2023-05-13T15:57:15.010Z,3.53
2023-05-13T15:59:41.576Z,3.50
2023-05-13T16:02:10.374Z,3.60
2023-05-13T16:04:39.555Z,3.40
2023-05-13T16:07:10.868Z,3.67
2023-05-13T16:09:40.921Z,4.00
2023-05-13T16:12:07.824Z,4.10
2023-05-13T16:14:34.601Z,4.43
2023-05-13T16:17:01.351Z,4.50
2023-05-13T16:19:27.900Z,5.00
2023-05-13T16:21:54.314Z,5.07
2023-05-13T16:24:21.566Z,5.13
2023-05-13T16:26:48.240Z,5.03
2023-05-13T16:29:15.500Z,5.83
2023-05-13T16:31:41.933Z,6.63
2023-05-13T16:34:08.338Z,6.22
2023-05-13T16:36:35.729Z,7.10
2023-05-13T16:39:02.817Z,6.53
2023-05-13T16:41:29.253Z,6.67
2023-05-13T16:43:55.944Z,6.37
2023-05-13T16:46:22.695Z,6.90
2023-05-13T16:48:49.130Z,6.60
2023-05-13T16:54:34.391Z,6.87
2023-05-13T16:57:01.198Z,7.53
2023-05-13T16:59:27.986Z,7.20
2023-05-13T17:01:54.918Z,7.60
2023-05-13T17:04:21.535Z,7.83
2023-05-13T17:06:48.128Z,7.70
2023-05-13T17:09:14.866Z,8.03
2023-05-13T17:11:41.823Z,8.10
2023-05-13T17:14:08.979Z,8.07
2023-05-13T17:16:36.044Z,7.60
2023-05-13T17:19:02.851Z,7.30
2023-05-13T17:21:29.720Z,7.23
2023-05-13T17:23:56.347Z,7.40
2023-05-13T17:26:23.193Z,9.00
2023-05-13T17:28:49.971Z,8.40
2023-05-13T17:31:16.785Z,7.75
2023-05-13T17:33:43.763Z,7.83
2023-05-13T17:36:11.037Z,7.90
2023-05-13T17:38:38.142Z,8.20
2023-05-13T17:41:05.189Z,8.90
2023-05-13T17:43:31.753Z,8.57
2023-05-13T17:45:58.266Z,8.50
2023-05-13T17:48:24.960Z,8.60
2023-05-13T17:50:51.646Z,8.37
2023-05-13T17:53:19.826Z,8.33
2023-05-13T17:55:48.456Z,7.63
2023-05-13T17:58:15.921Z,8.37
2023-05-13T18:00:42.458Z,7.90
2023-05-13T18:03:08.934Z,7.93
2023-05-13T18:05:35.752Z,7.50
2023-05-13T18:08:02.182Z,8.30
2023-05-13T18:10:28.872Z,7.07
2023-05-13T18:12:55.302Z,7.40
2023-05-13T18:15:21.720Z,7.63
2023-05-13T18:17:48.256Z,7.87
2023-05-13T18:20:14.685Z,8.20
2023-05-13T18:22:41.063Z,7.93
2023-05-13T18:25:08.332Z,7.67
2023-05-13T18:27:34.735Z,7.80
2023-05-13T18:30:01.151Z,8.40
2023-05-13T18:32:27.707Z,8.23
2023-05-13T18:34:54.137Z,8.40
2023-05-13T18:37:20.645Z,8.10
2023-05-13T18:39:47.061Z,7.83
2023-05-13T18:42:14.896Z,8.80
2023-05-13T18:44:45.488Z,8.20
2023-05-13T18:47:16.813Z,7.73
2023-05-13T18:49:51.486Z,7.80
2023-05-13T18:52:32.500Z,7.57
2023-05-13T18:55:08.180Z,8.03
2023-05-13T18:57:35.490Z,8.00
2023-05-13T19:00:06.158Z,6.97
2023-05-13T19:02:46.011Z,7.40
2023-05-13T19:05:23.197Z,7.70
2023-05-13T19:07:53.680Z,7.67
2023-05-13T19:10:23.817Z,8.40
2023-05-13T19:12:51.237Z,7.80
2023-05-13T19:15:21.912Z,8.00
2023-05-13T19:17:50.491Z,7.50
2023-05-13T19:20:22.545Z,8.00
2023-05-13T19:22:56.218Z,8.20
2023-05-13T19:25:24.009Z,8.43
2023-05-13T19:27:54.471Z,8.67
2023-05-13T19:30:21.989Z,7.87
2023-05-13T19:32:58.635Z,7.97
2023-05-13T19:35:25.396Z,7.63
2023-05-13T19:37:52.004Z,8.20
2023-05-13T19:40:18.899Z,7.30
2023-05-13T19:42:45.437Z,7.50
2023-05-13T19:45:12.149Z,8.07
2023-05-13T19:47:39.221Z,7.40
2023-05-13T19:50:06.159Z,11.43
2023-05-13T19:52:33.024Z,8.43
2023-05-13T19:54:59.433Z,7.97
2023-05-13T19:57:27.513Z,7.63
2023-05-13T19:59:55.733Z,7.73
2023-05-13T20:02:22.179Z,7.67
2023-05-13T20:04:48.605Z,7.63
2023-05-13T20:07:15.210Z,7.40
2023-05-13T20:09:41.628Z,7.33
2023-05-13T20:12:08.251Z,8.50
2023-05-13T20:14:48.368Z,7.70
2023-05-13T20:17:17.965Z,7.83
2023-05-13T20:19:47.230Z,8.03
2023-05-13T20:22:14.409Z,8.00
2023-05-13T20:24:40.901Z,7.83
2023-05-13T20:27:07.330Z,6.70
2023-05-13T20:29:38.155Z,6.53
2023-05-13T20:32:05.898Z,6.87
2023-05-13T20:34:36.282Z,6.90
2023-05-13T20:37:03.444Z,7.43
2023-05-13T20:39:29.819Z,7.50
2023-05-13T20:41:56.979Z,7.07
2023-05-13T20:44:24.233Z,6.73
2023-05-13T20:46:51.461Z,6.90
2023-05-13T20:49:18.099Z,6.57
2023-05-13T20:51:44.990Z,7.10
2023-05-13T20:54:12.499Z,7.30
2023-05-13T20:56:39.742Z,7.80
2023-05-13T20:59:06.778Z,7.80
2023-05-13T22:30:42.883Z,8.23
2023-05-13T22:35:46.351Z,8.17
2023-05-13T22:38:14.160Z,8.07
2023-05-13T22:40:40.957Z,8.50
2023-05-13T22:43:08.057Z,9.00
2023-05-13T22:45:36.807Z,8.07
2023-05-13T22:48:03.834Z,7.70
2023-05-13T22:50:30.810Z,7.40
2023-05-13T23:03:38.943Z,7.60
2023-05-13T23:06:05.977Z,7.50
2023-05-13T23:08:33.076Z,7.93
2023-05-13T23:13:35.408Z,6.80
2023-05-13T23:16:02.222Z,8.47
2023-05-13T23:18:29.375Z,7.50
2023-05-13T23:20:57.213Z,8.93
2023-05-13T23:23:24.116Z,8.10
2023-05-13T23:25:51.841Z,7.70
2023-05-13T23:28:19.702Z,8.27
2023-05-13T23:30:46.781Z,8.00
2023-05-13T23:33:13.776Z,8.93
2023-05-13T23:35:40.826Z,8.93
2023-05-13T23:38:08.503Z,7.67
2023-05-13T23:40:35.286Z,7.03
2023-05-13T23:43:02.485Z,7.10
2023-05-13T23:45:29.187Z,7.93
2023-05-13T23:47:55.759Z,7.93
2023-05-13T23:50:22.696Z,8.20
2023-05-13T23:58:06.567Z,8.03
